Time;durP1;ratioP1;P1;durP2;ratioP2;P2;SDS_P1;SDS_P2;PMS_P1;PMS_P2;Temp;Humidity;BMP_temperature;BMP_pressure;BME280_temperature;BME280_humidity;BME280_pressure;Samples;Min_cycle;Max_cycle;Signal;HPM_P1;HPM_P2
2023/01/21 00:01:12;;;;;;;25.08;13.13;;;;;;;;;;10424965;28;20024;-77
2023/01/21 00:06:15;;;;;;;31.85;14.60;;;;;;;;;;10425386;28;20056;-74
2023/01/21 00:11:15;;;;;;;25.73;14.00;;;;;;;;;;10424581;28;20071;-74
2023/01/21 00:16:16;;;;;;;24.27;13.67;;;;;;;;;;10424910;28;20121;-75
2023/01/21 00:21:16;;;;;;;24.73;12.13;;;;;;;;;;10420865;28;20057;-74
2023/01/21 00:26:16;;;;;;;22.77;11.38;;;;;;;;;;10419680;28;20029;-73
2023/01/21 00:31:16;;;;;;;19.17;10.93;;;;;;;;;;10425020;28;20029;-72
2023/01/21 00:36:17;;;;;;;25.35;13.52;;;;;;;;;;10427756;28;20032;-76
2023/01/21 00:41:17;;;;;;;23.92;12.25;;;;;;;;;;10432891;28;20021;-78
2023/01/21 00:46:18;;;;;;;22.08;11.52;;;;;;;;;;10432269;28;20033;-77
2023/01/21 00:51:18;;;;;;;25.92;11.27;;;;;;;;;;10450679;28;20035;-78
2023/01/21 00:56:18;;;;;;;21.92;11.40;;;;;;;;;;10432646;28;20376;-77
2023/01/21 01:01:19;;;;;;;18.25;10.25;;;;;;;;;;10430756;28;20056;-80
2023/01/21 01:06:21;;;;;;;20.80;10.27;;;;;;;;;;10433387;28;20443;-79
2023/01/21 01:11:21;;;;;;;20.90;10.95;;;;;;;;;;10423123;28;20112;-72
2023/01/21 01:16:22;;;;;;;20.33;11.27;;;;;;;;;;10432118;28;20390;-77
2023/01/21 01:21:22;;;;;;;22.83;12.93;;;;;;;;;;10431306;28;20549;-79
2023/01/21 01:26:22;;;;;;;22.25;10.32;;;;;;;;;;10431156;28;20025;-80
2023/01/21 01:31:22;;;;;;;24.80;12.07;;;;;;;;;;10429328;28;20013;-77
2023/01/21 01:36:23;;;;;;;25.10;13.13;;;;;;;;;;10446973;28;20115;-76
2023/01/21 01:41:26;;;;;;;19.60;10.50;;;;;;;;;;10430510;28;20467;-80
2023/01/21 01:46:28;;;;;;;15.32;8.25;;;;;;;;;;10429647;28;20086;-76
2023/01/21 01:51:31;;;;;;;13.35;7.57;;;;;;;;;;10429744;28;20083;-72
2023/01/21 01:56:33;;;;;;;17.25;8.48;;;;;;;;;;10429642;28;20577;-78
2023/01/21 02:01:34;;;;;;;14.85;8.75;;;;;;;;;;10429723;28;20025;-76
2023/01/21 02:06:34;;;;;;;19.73;9.13;;;;;;;;;;10445749;28;20049;-75
2023/01/21 02:11:35;;;;;;;15.75;9.48;;;;;;;;;;10428677;28;20024;-76
2023/01/21 02:16:41;;;;;;;15.30;8.75;;;;;;;;;;10428304;28;20037;-77
2023/01/21 02:21:42;;;;;;;19.10;9.20;;;;;;;;;;10447028;28;20592;-76
2023/01/21 02:26:42;;;;;;;15.13;8.85;;;;;;;;;;10445524;28;20108;-78
2023/01/21 02:31:45;;;;;;;15.95;7.88;;;;;;;;;;10427088;28;20025;-77
2023/01/21 02:36:45;;;;;;;15.80;8.85;;;;;;;;;;10425241;28;20024;-78
2023/01/21 02:41:49;;;;;;;17.33;7.95;;;;;;;;;;10425939;28;20021;-77
2023/01/21 02:46:59;;;;;;;18.35;8.07;;;;;;;;;;10425356;28;20055;-79
2023/01/21 02:51:59;;;;;;;19.95;10.23;;;;;;;;;;10427505;28;20032;-72
2023/01/21 02:57:00;;;;;;;16.75;8.57;;;;;;;;;;10451087;28;20033;-75
2023/01/21 03:02:19;;;;;;;18.95;10.00;;;;;;;;;;10426836;28;20153;-74
2023/01/21 03:07:45;;;;;;;16.88;9.07;;;;;;;;;;10426714;28;20091;-78
2023/01/21 03:12:55;;;;;;;25.50;8.50;;;;;;;;;;10396139;28;20175;-78
2023/01/21 03:18:14;;;;;;;15.85;8.23;;;;;;;;;;10426476;28;20031;-76
2023/01/21 03:23:16;;;;;;;15.00;8.68;;;;;;;;;;10397966;28;20025;-78
2023/01/21 03:28:20;;;;;;;15.05;8.07;;;;;;;;;;10425231;28;20036;-75
2023/01/21 03:33:20;;;;;;;14.43;8.23;;;;;;;;;;10409587;28;20078;-80
2023/01/21 03:38:33;;;;;;;16.08;9.20;;;;;;;;;;10426113;28;20040;-81
2023/01/21 03:43:34;;;;;;;22.55;9.38;;;;;;;;;;10425247;28;20028;-73
2023/01/21 03:48:37;;;;;;;19.40;9.23;;;;;;;;;;10423237;28;20282;-75
2023/01/21 03:53:38;;;;;;;17.98;8.80;;;;;;;;;;10451363;28;20048;-78
2023/01/21 03:58:38;;;;;;;19.90;9.63;;;;;;;;;;10442920;28;20039;-77
2023/01/21 04:03:39;;;;;;;19.33;10.97;;;;;;;;;;10424597;28;20051;-76
2023/01/21 04:08:39;;;;;;;16.17;8.77;;;;;;;;;;10408653;28;20503;-79
2023/01/21 04:13:40;;;;;;;21.63;10.18;;;;;;;;;;10426730;28;20100;-76
2023/01/21 04:18:40;;;;;;;15.95;8.40;;;;;;;;;;10429042;28;20040;-75
2023/01/21 04:23:41;;;;;;;14.70;8.23;;;;;;;;;;10423570;28;20376;-77
2023/01/21 04:28:41;;;;;;;17.70;8.83;;;;;;;;;;10397856;28;20029;-77
2023/01/21 04:33:41;;;;;;;19.05;10.10;;;;;;;;;;10398556;28;20037;-72
2023/01/21 04:38:42;;;;;;;18.60;9.75;;;;;;;;;;10397954;28;20028;-77
2023/01/21 04:43:42;;;;;;;15.03;8.57;;;;;;;;;;10399148;28;20602;-77
2023/01/21 04:48:42;;;;;;;17.07;8.13;;;;;;;;;;10402362;28;20037;-75
2023/01/21 04:53:42;;;;;;;16.58;8.32;;;;;;;;;;10410359;28;20032;-76
2023/01/21 04:58:43;;;;;;;15.93;8.07;;;;;;;;;;10398428;28;20509;-77
2023/01/21 05:03:43;;;;;;;14.25;7.53;;;;;;;;;;10410945;28;20744;-75
2023/01/21 05:08:43;;;;;;;13.55;7.50;;;;;;;;;;10405205;28;20435;-76
2023/01/21 05:13:43;;;;;;;10.52;6.53;;;;;;;;;;10420831;28;20029;-78
2023/01/21 05:18:44;;;;;;;11.63;6.45;;;;;;;;;;10422389;28;20475;-77
2023/01/21 05:23:44;;;;;;;13.20;6.57;;;;;;;;;;10427667;28;20072;-73
2023/01/21 05:28:45;;;;;;;14.85;8.23;;;;;;;;;;10419676;28;20061;-78
2023/01/21 05:33:46;;;;;;;13.88;7.15;;;;;;;;;;10399500;28;20055;-80
2023/01/21 05:38:46;;;;;;;15.48;7.93;;;;;;;;;;10443599;28;20033;-75
2023/01/21 05:43:46;;;;;;;12.82;7.47;;;;;;;;;;10428534;28;20115;-77
2023/01/21 05:48:46;;;;;;;12.25;7.60;;;;;;;;;;10449199;28;20068;-78
2023/01/21 05:53:47;;;;;;;10.98;5.97;;;;;;;;;;10448261;28;20475;-75
2023/01/21 05:58:47;;;;;;;14.15;8.25;;;;;;;;;;10429671;28;20060;-74
2023/01/21 06:03:47;;;;;;;22.83;10.90;;;;;;;;;;10429076;28;20128;-78
2023/01/21 06:08:47;;;;;;;28.27;13.55;;;;;;;;;;10447760;28;20037;-79
2023/01/21 06:13:48;;;;;;;27.47;15.17;;;;;;;;;;10428312;28;20144;-75
2023/01/21 06:18:48;;;;;;;29.60;13.63;;;;;;;;;;10428772;28;20551;-72
2023/01/21 06:23:48;;;;;;;30.00;13.53;;;;;;;;;;10441023;28;20033;-78
2023/01/21 06:28:49;;;;;;;28.63;14.55;;;;;;;;;;10441716;28;20028;-74
2023/01/21 06:33:49;;;;;;;30.38;14.15;;;;;;;;;;10411589;28;20549;-79
2023/01/21 06:38:49;;;;;;;32.42;15.80;;;;;;;;;;10404797;28;20029;-77
2023/01/21 06:43:49;;;;;;;19.35;9.35;;;;;;;;;;10398469;28;20118;-78
2023/01/21 06:48:50;;;;;;;17.98;8.18;;;;;;;;;;10409153;28;20040;-76
2023/01/21 06:53:51;;;;;;;13.85;8.23;;;;;;;;;;10424682;28;20037;-76
2023/01/21 06:58:51;;;;;;;15.23;7.63;;;;;;;;;;10410339;28;20033;-75
2023/01/21 07:03:51;;;;;;;10.68;6.53;;;;;;;;;;10411510;28;20299;-76
2023/01/21 07:08:52;;;;;;;9.98;5.97;;;;;;;;;;10403327;28;20029;-77
2023/01/21 07:13:52;;;;;;;12.70;5.35;;;;;;;;;;10415162;28;20414;-76
2023/01/21 07:18:52;;;;;;;7.97;5.53;;;;;;;;;;10414529;28;20166;-72
2023/01/21 07:23:52;;;;;;;11.45;6.70;;;;;;;;;;10421051;28;20021;-77
2023/01/21 07:28:53;;;;;;;11.33;6.47;;;;;;;;;;10444204;28;20423;-79
2023/01/21 07:33:53;;;;;;;8.82;4.47;;;;;;;;;;10424821;28;20029;-76
2023/01/21 07:38:53;;;;;;;14.18;5.90;;;;;;;;;;10422011;28;20078;-76
2023/01/21 07:43:54;;;;;;;8.98;3.25;;;;;;;;;;10422089;28;20021;-78
2023/01/21 07:48:54;;;;;;;12.15;6.50;;;;;;;;;;10422601;28;20105;-77
2023/01/21 07:53:55;;;;;;;10.70;5.97;;;;;;;;;;10440687;28;20506;-76
2023/01/21 07:58:56;;;;;;;7.45;4.35;;;;;;;;;;10423904;28;20017;-77
2023/01/21 08:03:56;;;;;;;7.20;4.28;;;;;;;;;;10440748;28;20049;-75
2023/01/21 08:08:57;;;;;;;5.05;3.00;;;;;;;;;;10421640;28;20037;-76
2023/01/21 08:13:57;;;;;;;5.40;3.28;;;;;;;;;;10422447;28;20403;-75
2023/01/21 08:18:57;;;;;;;10.47;4.57;;;;;;;;;;10422199;28;20033;-79
2023/01/21 08:23:58;;;;;;;4.75;2.72;;;;;;;;;;10422147;28;20013;-78
2023/01/21 08:28:58;;;;;;;14.18;5.45;;;;;;;;;;10421252;28;20040;-74
2023/01/21 08:33:58;;;;;;;7.23;3.97;;;;;;;;;;10420182;28;20036;-77
2023/01/21 08:39:00;;;;;;;5.70;4.23;;;;;;;;;;10420861;28;20029;-73
2023/01/21 08:44:01;;;;;;;6.13;2.90;;;;;;;;;;10420375;28;20029;-79
2023/01/21 08:49:01;;;;;;;5.82;3.03;;;;;;;;;;10418733;28;20024;-76
2023/01/21 08:54:01;;;;;;;8.77;3.40;;;;;;;;;;10413772;28;20033;-76
2023/01/21 08:59:01;;;;;;;4.07;2.53;;;;;;;;;;10432484;28;20033;-77
2023/01/21 09:04:02;;;;;;;3.45;2.13;;;;;;;;;;10382677;28;1140820;-77
2023/01/21 09:09:02;;;;;;;5.65;2.60;;;;;;;;;;10430207;28;20109;-78
2023/01/21 09:14:03;;;;;;;2.93;1.83;;;;;;;;;;10431682;28;20370;-75
2023/01/21 09:19:03;;;;;;;5.25;2.58;;;;;;;;;;10445928;28;20020;-75
2023/01/21 09:24:04;;;;;;;5.10;3.15;;;;;;;;;;10425977;28;20135;-79
2023/01/21 09:29:04;;;;;;;4.50;2.20;;;;;;;;;;10417704;28;20115;-77
2023/01/21 09:34:04;;;;;;;4.10;2.60;;;;;;;;;;10417662;28;20017;-77
2023/01/21 09:39:05;;;;;;;2.40;2.17;;;;;;;;;;10431456;28;20025;-78
2023/01/21 09:44:24;;;;;;;3.55;2.55;;;;;;;;;;10441772;28;20048;-80
2023/01/21 09:49:27;;;;;;;3.42;2.30;;;;;;;;;;10424466;28;20032;-75
2023/01/21 09:54:29;;;;;;;4.85;2.88;;;;;;;;;;10418539;28;20032;-77
2023/01/21 09:59:32;;;;;;;7.00;3.03;;;;;;;;;;10413532;28;20107;-78
2023/01/21 10:04:39;;;;;;;5.30;2.22;;;;;;;;;;10422465;28;20555;-77
2023/01/21 10:09:54;;;;;;;5.50;2.70;;;;;;;;;;10441172;28;20059;-75
2023/01/21 10:15:13;;;;;;;8.25;2.85;;;;;;;;;;10413982;28;20017;-78
2023/01/21 10:20:16;;;;;;;2.97;1.33;;;;;;;;;;10426457;28;20024;-75
2023/01/21 10:25:16;;;;;;;4.15;2.08;;;;;;;;;;10425534;28;20020;-78
2023/01/21 10:30:22;;;;;;;2.58;2.00;;;;;;;;;;10424883;28;20031;-72
2023/01/21 10:35:37;;;;;;;3.22;1.23;;;;;;;;;;10424156;28;20479;-78
2023/01/21 10:40:52;;;;;;;10.38;1.92;;;;;;;;;;10424040;28;20017;-77
2023/01/21 10:45:59;;;;;;;1.33;1.10;;;;;;;;;;10426443;28;20021;-79
2023/01/21 10:51:09;;;;;;;4.95;2.17;;;;;;;;;;10408017;28;20056;-78
2023/01/21 10:56:17;;;;;;;3.45;1.30;;;;;;;;;;10403814;28;20028;-80
2023/01/21 11:01:27;;;;;;;2.83;1.17;;;;;;;;;;10432861;28;20491;-77
2023/01/21 11:06:29;;;;;;;3.08;1.38;;;;;;;;;;10425830;28;20110;-75
2023/01/21 11:11:31;;;;;;;1.80;1.05;;;;;;;;;;10446870;28;20552;-78
2023/01/21 11:16:48;;;;;;;4.75;0.85;;;;;;;;;;10468029;28;20020;-77
2023/01/21 11:21:59;;;;;;;3.50;1.30;;;;;;;;;;10463635;28;20024;-71
2023/01/21 11:26:59;;;;;;;3.38;1.27;;;;;;;;;;10415741;28;20029;-71
2023/01/21 11:32:20;;;;;;;4.43;1.40;;;;;;;;;;10425468;28;20040;-73
2023/01/21 11:37:23;;;;;;;3.72;1.35;;;;;;;;;;10442499;28;20033;-78
2023/01/21 11:42:23;;;;;;;3.33;1.52;;;;;;;;;;10425551;28;20019;-76
2023/01/21 11:47:32;;;;;;;2.33;1.40;;;;;;;;;;10443308;28;20039;-75
2023/01/21 11:52:33;;;;;;;3.22;1.55;;;;;;;;;;10443199;28;20506;-77
2023/01/21 11:57:33;;;;;;;4.72;1.50;;;;;;;;;;10424671;28;20029;-77
2023/01/21 12:02:37;;;;;;;1.80;1.40;;;;;;;;;;10425725;28;20087;-73
2023/01/21 12:07:39;;;;;;;4.07;1.73;;;;;;;;;;10424955;28;20514;-79
2023/01/21 12:12:55;;;;;;;4.45;2.55;;;;;;;;;;10442145;28;20029;-78
2023/01/21 12:17:58;;;;;;;13.98;6.32;;;;;;;;;;10421828;28;20036;-76
2023/01/21 12:23:18;;;;;;;5.00;2.33;;;;;;;;;;10424427;28;20121;-75
2023/01/21 12:28:24;;;;;;;3.45;2.13;;;;;;;;;;10436172;28;20481;-74
2023/01/21 12:33:31;;;;;;;9.15;2.70;;;;;;;;;;10425290;28;20107;-78
2023/01/21 12:38:39;;;;;;;5.22;3.00;;;;;;;;;;10427821;28;20540;-78
2023/01/21 12:43:45;;;;;;;3.53;2.22;;;;;;;;;;10420016;28;20108;-79
2023/01/21 12:49:01;;;;;;;4.78;2.47;;;;;;;;;;10430502;28;20402;-79
2023/01/21 12:54:15;;;;;;;2.83;2.20;;;;;;;;;;10423005;28;20517;-79
2023/01/21 12:59:22;;;;;;;3.47;2.13;;;;;;;;;;10429855;28;20586;-77
2023/01/21 13:04:25;;;;;;;6.68;2.78;;;;;;;;;;10421832;28;20136;-75
2023/01/21 13:09:31;;;;;;;6.00;3.08;;;;;;;;;;10424321;28;20029;-79
2023/01/21 13:14:39;;;;;;;4.55;3.40;;;;;;;;;;10426049;28;20028;-75
2023/01/21 13:19:39;;;;;;;;;;;;;;;;;;10427190;28;20036;-75
2023/01/21 13:24:55;;;;;;;6.35;3.22;;;;;;;;;;10428164;28;19913;-75
2023/01/21 13:30:14;;;;;;;5.85;3.63;;;;;;;;;;10429003;28;20025;-76
2023/01/21 13:35:23;;;;;;;5.97;3.30;;;;;;;;;;10428608;28;20021;-76
2023/01/21 13:40:24;;;;;;;7.63;4.25;;;;;;;;;;10428063;28;20059;-77
2023/01/21 13:45:27;;;;;;;6.10;3.78;;;;;;;;;;10427799;28;20396;-76
2023/01/21 13:50:36;;;;;;;5.95;4.03;;;;;;;;;;10428634;28;20021;-77
2023/01/21 13:55:54;;;;;;;6.63;3.22;;;;;;;;;;10418916;28;20037;-73
2023/01/21 14:00:57;;;;;;;5.67;3.90;;;;;;;;;;10423842;28;20499;-77
2023/01/21 14:05:58;;;;;;;5.53;3.35;;;;;;;;;;10410397;28;20361;-73
2023/01/21 14:10:58;;;;;;;7.45;3.90;;;;;;;;;;10428297;28;20522;-78
2023/01/21 14:16:08;;;;;;;5.07;3.60;;;;;;;;;;10426496;28;20020;-74
2023/01/21 14:21:20;;;;;;;7.40;4.13;;;;;;;;;;10420519;28;20029;-78
2023/01/21 14:26:23;;;;;;;8.85;4.60;;;;;;;;;;10430980;28;20494;-76
2023/01/21 14:31:29;;;;;;;6.28;4.40;;;;;;;;;;10423668;28;20037;-80
2023/01/21 14:36:40;;;;;;;9.93;4.35;;;;;;;;;;10416297;28;20063;-72
2023/01/21 14:42:01;;;;;;;6.20;3.97;;;;;;;;;;10427656;28;20029;-73
2023/01/21 14:47:39;;;;;;;7.68;4.53;;;;;;;;;;10421917;28;20021;-78
2023/01/21 14:52:39;;;;;;;10.52;5.53;;;;;;;;;;10423164;28;20066;-77
2023/01/21 14:57:40;;;;;;;9.60;5.32;;;;;;;;;;10424200;28;20116;-78
2023/01/21 15:02:42;;;;;;;11.45;4.47;;;;;;;;;;10420561;28;20045;-72
2023/01/21 15:07:44;;;;;;;11.60;5.75;;;;;;;;;;10417399;28;20036;-80
2023/01/21 15:12:49;;;;;;;9.07;5.43;;;;;;;;;;10439742;28;20104;-77
2023/01/21 15:17:52;;;;;;;10.23;4.72;;;;;;;;;;10418932;28;20025;-76
2023/01/21 15:23:03;;;;;;;12.38;6.30;;;;;;;;;;10424635;28;20467;-76
2023/01/21 15:28:37;;;;;;;8.23;4.43;;;;;;;;;;10434442;28;20035;-75
2023/01/21 15:33:45;;;;;;;8.02;5.68;;;;;;;;;;10418231;28;20437;-76
2023/01/21 15:38:45;;;;;;;12.20;7.85;;;;;;;;;;10430887;28;20064;-75
2023/01/21 15:43:53;;;;;;;13.70;7.30;;;;;;;;;;10421514;28;20491;-76
2023/01/21 15:49:12;;;;;;;9.75;5.57;;;;;;;;;;10419932;28;20021;-74
2023/01/21 15:54:19;;;;;;;10.63;6.60;;;;;;;;;;10437711;28;20033;-77
2023/01/21 15:59:37;;;;;;;7.53;5.85;;;;;;;;;;10429535;28;20021;-75
2023/01/21 16:04:42;;;;;;;11.27;5.30;;;;;;;;;;10420955;28;20469;-75
2023/01/21 16:09:42;;;;;;;10.00;6.07;;;;;;;;;;10424779;28;20132;-77
2023/01/21 16:14:51;;;;;;;10.33;6.00;;;;;;;;;;10417368;28;20025;-77
2023/01/21 16:19:53;;;;;;;13.13;6.32;;;;;;;;;;10419097;28;20017;-77
2023/01/21 16:25:05;;;;;;;14.23;6.95;;;;;;;;;;10412815;28;20251;-76
2023/01/21 16:30:06;;;;;;;10.63;6.50;;;;;;;;;;10413485;28;20028;-75
2023/01/21 16:35:07;;;;;;;11.73;6.85;;;;;;;;;;10421769;28;20499;-73
2023/01/21 16:40:07;;;;;;;15.07;7.07;;;;;;;;;;10438564;28;20128;-74
2023/01/21 16:45:16;;;;;;;13.38;6.88;;;;;;;;;;10418596;28;20044;-77
2023/01/21 16:50:21;;;;;;;15.55;7.38;;;;;;;;;;10414048;28;20024;-73
2023/01/21 16:55:24;;;;;;;11.88;6.82;;;;;;;;;;10415042;28;20020;-75
2023/01/21 17:00:28;;;;;;;14.25;7.45;;;;;;;;;;10445132;28;20122;-78
2023/01/21 17:05:30;;;;;;;10.65;7.10;;;;;;;;;;10426176;28;20063;-77
2023/01/21 17:10:36;;;;;;;12.82;6.47;;;;;;;;;;10424246;28;20434;-76
2023/01/21 17:15:40;;;;;;;13.30;7.32;;;;;;;;;;10421653;28;20556;-74
2023/01/21 17:20:58;;;;;;;9.52;5.82;;;;;;;;;;10423867;28;20491;-78
2023/01/21 17:26:04;;;;;;;9.65;6.35;;;;;;;;;;10446279;28;20143;-81
2023/01/21 17:31:13;;;;;;;10.70;5.72;;;;;;;;;;10426761;28;20025;-74
2023/01/21 17:36:14;;;;;;;10.18;6.43;;;;;;;;;;10418309;28;20112;-76
2023/01/21 17:41:24;;;;;;;7.82;5.50;;;;;;;;;;10423315;28;20448;-76
2023/01/21 17:46:25;;;;;;;9.07;5.97;;;;;;;;;;10425257;28;20473;-77
2023/01/21 17:51:27;;;;;;;8.20;5.55;;;;;;;;;;10444299;28;20055;-78
2023/01/21 17:56:33;;;;;;;11.98;6.05;;;;;;;;;;10443965;28;20115;-78
2023/01/21 18:01:33;;;;;;;6.05;4.63;;;;;;;;;;10429223;28;20052;-79
2023/01/21 18:06:34;;;;;;;9.23;5.82;;;;;;;;;;10441828;28;20037;-78
2023/01/21 18:11:34;;;;;;;11.90;7.25;;;;;;;;;;10423836;28;20515;-78
2023/01/21 18:16:35;;;;;;;15.18;6.82;;;;;;;;;;10425662;28;20025;-74
2023/01/21 18:21:35;;;;;;;13.73;7.40;;;;;;;;;;10426947;28;20035;-76
2023/01/21 18:26:37;;;;;;;14.73;8.38;;;;;;;;;;10449434;28;20111;-77
2023/01/21 18:31:37;;;;;;;13.93;8.70;;;;;;;;;;10449221;28;20565;-74
2023/01/21 18:36:38;;;;;;;13.35;8.18;;;;;;;;;;10426534;28;20127;-77
2023/01/21 18:41:38;;;;;;;14.05;8.30;;;;;;;;;;10417465;28;20021;-76
2023/01/21 18:46:41;;;;;;;14.27;7.83;;;;;;;;;;10426669;28;20245;-75
2023/01/21 18:51:41;;;;;;;14.98;7.25;;;;;;;;;;10448604;28;20032;-77
2023/01/21 18:56:42;;;;;;;17.30;8.25;;;;;;;;;;10445566;28;20406;-74
2023/01/21 19:01:43;;;;;;;13.80;7.47;;;;;;;;;;10409174;28;20048;-74
2023/01/21 19:06:45;;;;;;;25.00;11.95;;;;;;;;;;10435947;28;20033;-76
2023/01/21 19:11:46;;;;;;;25.58;12.43;;;;;;;;;;10426828;28;20032;-75
2023/01/21 19:16:46;;;;;;;24.40;12.65;;;;;;;;;;10430473;28;20387;-72
2023/01/21 19:21:46;;;;;;;28.42;13.43;;;;;;;;;;10434053;28;20083;-79
2023/01/21 19:26:46;;;;;;;29.70;13.90;;;;;;;;;;10425122;28;20476;-77
2023/01/21 19:31:47;;;;;;;26.70;14.43;;;;;;;;;;10409327;28;20437;-78
2023/01/21 19:36:47;;;;;;;21.07;11.03;;;;;;;;;;10441703;28;20103;-79
2023/01/21 19:41:47;;;;;;;17.77;7.73;;;;;;;;;;10424514;28;20037;-79
2023/01/21 19:46:48;;;;;;;13.30;6.57;;;;;;;;;;10422613;28;20078;-77
2023/01/21 19:51:48;;;;;;;14.57;7.15;;;;;;;;;;10423858;28;20025;-77
2023/01/21 19:56:49;;;;;;;12.10;6.47;;;;;;;;;;10446118;28;20505;-76
2023/01/21 20:01:49;;;;;;;11.32;5.70;;;;;;;;;;10432544;28;20033;-76
2023/01/21 20:06:50;;;;;;;10.00;6.30;;;;;;;;;;10441631;28;20053;-73
2023/01/21 20:11:50;;;;;;;8.82;5.80;;;;;;;;;;10439245;28;20047;-79
2023/01/21 20:16:52;;;;;;;10.43;5.50;;;;;;;;;;10425207;28;20029;-72
2023/01/21 20:21:52;;;;;;;9.95;5.25;;;;;;;;;;10424838;28;20028;-71
2023/01/21 20:26:52;;;;;;;10.10;5.43;;;;;;;;;;10425637;28;20033;-72
2023/01/21 20:31:54;;;;;;;8.05;4.28;;;;;;;;;;10424445;28;20021;-77
2023/01/21 20:36:54;;;;;;;11.82;5.43;;;;;;;;;;10414647;28;20028;-77
2023/01/21 20:41:54;;;;;;;12.53;5.33;;;;;;;;;;10408188;28;20453;-77
2023/01/21 20:46:57;;;;;;;10.48;5.57;;;;;;;;;;10423440;28;20039;-81
2023/01/21 20:51:57;;;;;;;10.95;5.20;;;;;;;;;;10424149;28;20029;-78
2023/01/21 20:56:57;;;;;;;9.65;5.93;;;;;;;;;;10433938;28;20081;-73
2023/01/21 21:01:57;;;;;;;14.52;6.13;;;;;;;;;;10432166;28;20032;-76
2023/01/21 21:06:58;;;;;;;11.32;6.40;;;;;;;;;;10431784;28;20033;-74
2023/01/21 21:11:58;;;;;;;20.38;9.20;;;;;;;;;;10429596;28;20029;-73
2023/01/21 21:16:58;;;;;;;17.30;10.02;;;;;;;;;;10435369;28;20033;-76
2023/01/21 21:21:58;;;;;;;30.70;12.57;;;;;;;;;;10430015;28;20017;-73
2023/01/21 21:26:59;;;;;;;27.27;11.50;;;;;;;;;;10413244;28;20021;-74
2023/01/21 21:32:00;;;;;;;25.30;12.05;;;;;;;;;;10425165;28;20036;-78
2023/01/21 21:37:00;;;;;;;25.63;12.50;;;;;;;;;;10417090;28;20092;-75
2023/01/21 21:52:39;;;;;;;17.52;9.38;;;;;;;;;;10429132;28;20138;-78
2023/01/21 21:57:40;;;;;;;16.00;9.23;;;;;;;;;;10430646;28;20032;-78
2023/01/21 22:02:41;;;;;;;18.20;9.15;;;;;;;;;;10424495;28;20133;-74
2023/01/21 22:07:41;;;;;;;24.77;10.50;;;;;;;;;;10444149;28;20033;-78
2023/01/21 22:12:41;;;;;;;19.35;9.13;;;;;;;;;;10428545;28;20025;-78
2023/01/21 22:17:41;;;;;;;22.17;10.23;;;;;;;;;;10420548;28;20569;-78
2023/01/21 22:22:42;;;;;;;17.80;9.27;;;;;;;;;;10411637;28;20025;-78
2023/01/21 22:27:43;;;;;;;17.48;9.40;;;;;;;;;;10427557;28;20029;-78
2023/01/21 22:32:43;;;;;;;19.10;8.43;;;;;;;;;;10427713;28;20020;-74
2023/01/21 22:37:43;;;;;;;18.20;9.85;;;;;;;;;;10426257;28;20025;-77
2023/01/21 22:42:44;;;;;;;22.83;9.03;;;;;;;;;;10428208;28;20538;-76
2023/01/21 22:47:44;;;;;;;25.60;9.50;;;;;;;;;;10426147;28;20039;-80
2023/01/21 22:52:44;;;;;;;17.90;9.25;;;;;;;;;;10427056;28;20070;-75
2023/01/21 22:57:44;;;;;;;16.75;7.97;;;;;;;;;;10438223;28;20016;-76
2023/01/21 23:02:45;;;;;;;15.10;8.43;;;;;;;;;;10426565;28;20041;-75
2023/01/21 23:07:45;;;;;;;16.23;8.82;;;;;;;;;;10427597;28;20180;-75
2023/01/21 23:12:46;;;;;;;16.83;9.73;;;;;;;;;;10426856;28;20021;-79
2023/01/21 23:17:47;;;;;;;13.82;8.32;;;;;;;;;;10422704;28;20032;-77
2023/01/21 23:22:48;;;;;;;16.60;8.82;;;;;;;;;;10426573;28;20840;-78
2023/01/21 23:27:48;;;;;;;19.00;9.68;;;;;;;;;;10425053;28;20547;-78
2023/01/21 23:32:48;;;;;;;22.77;10.30;;;;;;;;;;10426355;28;20490;-77
2023/01/21 23:37:49;;;;;;;17.38;8.60;;;;;;;;;;10437257;28;20481;-74
2023/01/21 23:42:49;;;;;;;22.35;9.93;;;;;;;;;;10432666;28;20487;-78
2023/01/21 23:47:50;;;;;;;24.67;11.48;;;;;;;;;;10416267;28;20087;-73
2023/01/21 23:52:50;;;;;;;23.67;13.07;;;;;;;;;;10400509;28;20026;-77
2023/01/21 23:57:50;;;;;;;24.17;13.63;;;;;;;;;;10443473;28;20570;-76
